Main page
METAR-TAF:

METAR-TAF

Airports :

Harbor Springs Municipal Airport

Harbor Springs, Michigan, United States

latitude: 45-25-32N, longitude: 084-54-48W, elevation: 686 ft

Current weather observation

The report was made 6 minutes ago, at 18:55 UTC
Wind 10 mph from the Northeast
Temperature 39°F
Humidity 22%
Pressure 30.29 in. Hg
Visibility: 10 miles
Clear sky

METAR: KMGN 241855Z AUTO 05009KT 10SM CLR 04/M16 A3029 RMK AO2 T00461163

Time: 15:01 (19:01 UTC)


TAF: missing

Weather observations and forecasts of more than 4000 airports (METAR and TAF reports).

The available stations are represented by yellow and red dots on the map.

Hover mouse over dot to see the name of the station.

Then click to see weather observations and forecasts.

To change the map : click on the green buttons with a black cross to zoom in, on the green button with a dash to zoom out, or on the green arrows for adjacent maps.


METAR-TAF: